In Rescue
 
Open Full Screen Window  High Contrast Mode
Wind Gusting 00 knots
13
April 19, 2021 7:30 PM CDT
Weather Information
Wind Direction
  330 °
Wind Speed
  13 kt (15 mph)
Wind Gust
  00 kt (0 mph)
Altimeter
30.07 in
Visibility
10 SM
Temperature
02° C
36° F
Dewpoint
-11° C
12° F
Humidity
38%
1hr Rain Fall
00.00 in.
24hr Rain Fall
00.00 in.
Sky Condition
Scattered @ 6,000 ft
VFR

METAR KGHW 200030Z AUTO 33013KT 10SM SCT060 02/M11 A3007 RMK AO2

FAA Disclaimer: The data displayed is for advisory purposes only and is not to be used for flight planning or operations.